Time;durP1;ratioP1;P1;durP2;ratioP2;P2;SDS_P1;SDS_P2;PMS_P1;PMS_P2;Temp;Humidity;BMP_temperature;BMP_pressure;BME280_temperature;BME280_humidity;BME280_pressure;Samples;Min_cycle;Max_cycle;Signal;HPM_P1;HPM_P2
2021/09/12 00:01:53;;;;;;;10.43;9.43;;;13.90;84.10;;;;;;4932844;29;20801;-71
2021/09/12 00:04:25;;;;;;;10.70;9.75;;;13.90;85.00;;;;;;4933311;29;20053;-72
2021/09/12 00:06:57;;;;;;;10.77;9.88;;;13.90;84.30;;;;;;4934394;29;20086;-72
2021/09/12 00:09:29;;;;;;;10.73;9.82;;;13.90;83.70;;;;;;4934554;29;20942;-72
2021/09/12 00:12:01;;;;;;;10.93;9.88;;;13.90;84.00;;;;;;4934638;29;20134;-73
2021/09/12 00:14:33;;;;;;;10.70;9.75;;;13.80;84.50;;;;;;4936703;29;20052;-73
2021/09/12 00:17:05;;;;;;;10.98;9.98;;;13.80;84.10;;;;;;4925599;29;20059;-72
2021/09/12 00:19:37;;;;;;;10.35;9.45;;;13.80;84.10;;;;;;4935800;29;20140;-73
2021/09/12 00:22:09;;;;;;;10.98;10.00;;;13.80;84.30;;;;;;4934807;29;20059;-73
2021/09/12 00:24:41;;;;;;;10.65;9.75;;;13.90;84.10;;;;;;4933590;29;20120;-72
2021/09/12 00:27:13;;;;;;;10.48;9.48;;;13.90;83.60;;;;;;4919760;29;20048;-73
2021/09/12 00:29:45;;;;;;;10.10;9.20;;;13.80;84.10;;;;;;4933291;29;20484;-72
2021/09/12 00:32:17;;;;;;;10.27;9.38;;;13.80;83.90;;;;;;4936009;29;20071;-73
2021/09/12 00:34:49;;;;;;;10.63;9.82;;;13.80;84.10;;;;;;4930947;29;20067;-73
2021/09/12 00:37:21;;;;;;;9.98;9.18;;;13.70;84.40;;;;;;4931778;29;20055;-73
2021/09/12 00:39:53;;;;;;;10.20;9.40;;;13.70;85.60;;;;;;4933757;29;21001;-72
2021/09/12 00:42:25;;;;;;;10.85;9.88;;;13.70;85.10;;;;;;4932790;29;20055;-72
2021/09/12 00:44:57;;;;;;;10.25;9.32;;;13.70;84.80;;;;;;4935994;29;21617;-72
2021/09/12 00:47:29;;;;;;;10.20;9.30;;;13.70;84.40;;;;;;4934330;29;20218;-72
2021/09/12 00:50:01;;;;;;;10.73;9.63;;;13.70;84.60;;;;;;4934342;29;20059;-71
2021/09/12 00:52:34;;;;;;;10.60;9.70;;;13.70;84.80;;;;;;4934279;29;20052;-72
2021/09/12 00:55:07;;;;;;;10.20;9.30;;;13.70;84.90;;;;;;4948261;29;20090;-71
2021/09/12 00:57:44;;;;;;;10.52;9.60;;;13.70;84.80;;;;;;4934696;29;20116;-71
2021/09/12 01:00:17;;;;;;;10.20;9.40;;;13.60;85.00;;;;;;4933969;29;20142;-71
2021/09/12 01:02:48;;;;;;;10.15;9.35;;;13.60;84.90;;;;;;4934564;29;20653;-71
2021/09/12 01:05:22;;;;;;;10.82;9.73;;;13.60;85.00;;;;;;4933608;29;20524;-71
2021/09/12 01:07:54;;;;;;;11.52;10.52;;;13.60;85.60;;;;;;4932913;29;20054;-71
2021/09/12 01:10:26;;;;;;;11.73;10.73;;;13.60;86.00;;;;;;4931485;29;20050;-70
2021/09/12 01:12:58;;;;;;;11.85;10.77;;;13.50;85.60;;;;;;4933339;29;20134;-70
2021/09/12 01:15:30;;;;;;;11.30;10.40;;;13.50;86.10;;;;;;4923187;29;20051;-71
2021/09/12 01:18:02;;;;;;;12.15;10.85;;;13.50;85.30;;;;;;4933774;29;20861;-71
2021/09/12 01:20:34;;;;;;;11.07;10.25;;;13.60;85.80;;;;;;4933772;29;20104;-71
2021/09/12 01:23:07;;;;;;;12.15;11.15;;;13.60;86.10;;;;;;4930730;29;20148;-71
2021/09/12 01:25:39;;;;;;;11.38;10.23;;;13.50;86.10;;;;;;4935249;29;20096;-71
2021/09/12 01:28:11;;;;;;;11.13;10.32;;;13.60;85.90;;;;;;4933507;29;20976;-72
2021/09/12 01:30:43;;;;;;;10.75;9.95;;;13.60;85.30;;;;;;4931564;29;20139;-72
2021/09/12 01:33:15;;;;;;;10.93;9.95;;;13.60;85.10;;;;;;4933944;29;20063;-72
2021/09/12 01:35:47;;;;;;;10.88;9.98;;;13.70;85.00;;;;;;4934301;29;20467;-72
2021/09/12 01:38:19;;;;;;;11.20;10.27;;;13.70;85.40;;;;;;4935328;29;20400;-71
2021/09/12 01:40:51;;;;;;;11.93;10.80;;;13.70;86.00;;;;;;4931281;29;20196;-71
2021/09/12 01:43:23;;;;;;;12.45;11.43;;;13.70;86.40;;;;;;4934977;29;20055;-71
2021/09/12 01:45:55;;;;;;;12.10;11.20;;;13.60;86.70;;;;;;4917950;30;20317;-71
2021/09/12 01:48:27;;;;;;;11.60;10.70;;;13.50;86.70;;;;;;4933164;29;20109;-71
2021/09/12 01:50:59;;;;;;;11.23;10.32;;;13.50;86.90;;;;;;4945912;29;20063;-71
2021/09/12 01:53:32;;;;;;;12.25;11.02;;;13.50;86.40;;;;;;4931917;29;20142;-71
2021/09/12 01:56:05;;;;;;;11.52;10.48;;;13.50;86.30;;;;;;4932782;29;20063;-71
2021/09/12 01:58:37;;;;;;;11.65;10.65;;;13.50;85.80;;;;;;4934442;29;20151;-72
2021/09/12 02:01:09;;;;;;;12.38;11.18;;;13.60;85.90;;;;;;4932462;29;20514;-72
2021/09/12 02:03:42;;;;;;;11.57;10.68;;;13.60;86.30;;;;;;4935535;29;20051;-72
2021/09/12 02:06:14;;;;;;;11.93;11.02;;;13.60;86.20;;;;;;4931032;29;20138;-72
2021/09/12 02:08:46;;;;;;;11.63;10.63;;;13.60;85.80;;;;;;4933533;29;20048;-72
2021/09/12 02:11:18;;;;;;;12.32;11.32;;;13.70;85.80;;;;;;4930474;29;20052;-73
2021/09/12 02:13:50;;;;;;;12.30;11.20;;;13.70;86.70;;;;;;4941166;29;20051;-72
2021/09/12 02:16:24;;;;;;;11.73;10.73;;;13.70;86.80;;;;;;4931809;29;20761;-71
2021/09/12 02:18:56;;;;;;;11.95;10.75;;;13.70;86.50;;;;;;4931351;29;20116;-71
2021/09/12 02:21:28;;;;;;;12.13;10.93;;;13.70;87.50;;;;;;4921595;30;20145;-72
2021/09/12 02:24:00;;;;;;;12.45;11.25;;;13.80;86.60;;;;;;4932436;29;20489;-71
2021/09/12 02:26:32;;;;;;;11.73;10.68;;;13.70;86.90;;;;;;4916141;29;20052;-72
2021/09/12 02:29:04;;;;;;;12.15;11.18;;;13.80;86.20;;;;;;4931895;29;20685;-72
2021/09/12 02:31:36;;;;;;;12.38;11.40;;;13.80;87.30;;;;;;4931188;29;20048;-72
2021/09/12 02:34:07;;;;;;;11.85;10.95;;;13.80;87.50;;;;;;4934111;29;20112;-72
2021/09/12 02:36:40;;;;;;;11.80;10.70;;;13.80;86.60;;;;;;4918284;29;20047;-73
2021/09/12 02:39:12;;;;;;;12.20;11.07;;;13.90;86.70;;;;;;4931690;29;20051;-72
2021/09/12 02:41:44;;;;;;;11.77;10.77;;;13.90;86.80;;;;;;4931739;29;20131;-72
2021/09/12 02:44:16;;;;;;;13.05;11.85;;;13.90;87.10;;;;;;4931650;29;20668;-72
2021/09/12 02:46:48;;;;;;;12.05;10.98;;;13.90;86.80;;;;;;4927894;29;20137;-73
2021/09/12 02:49:19;;;;;;;11.98;11.05;;;13.90;86.30;;;;;;4947073;29;20090;-72
2021/09/12 02:51:52;;;;;;;12.30;11.30;;;13.90;86.40;;;;;;4932221;29;20051;-72
2021/09/12 02:54:23;;;;;;;11.85;10.85;;;13.90;87.00;;;;;;4932141;29;20055;-72
2021/09/12 02:56:55;;;;;;;12.43;11.32;;;13.90;87.50;;;;;;4928895;29;20500;-71
2021/09/12 02:59:27;;;;;;;12.27;11.25;;;14.00;87.30;;;;;;4934479;29;20237;-72
2021/09/12 03:01:59;;;;;;;11.70;10.77;;;14.00;87.70;;;;;;4931244;29;20143;-71
2021/09/12 03:04:32;;;;;;;12.07;11.13;;;13.90;87.50;;;;;;4932650;29;20598;-72
2021/09/12 03:07:04;;;;;;;12.07;11.10;;;14.00;87.10;;;;;;4939766;29;20828;-71
2021/09/12 03:09:36;;;;;;;12.90;11.82;;;14.00;87.30;;;;;;4932516;29;20118;-72
2021/09/12 03:12:08;;;;;;;12.95;11.95;;;14.00;86.60;;;;;;4916694;29;20141;-72
2021/09/12 03:14:40;;;;;;;12.15;11.15;;;14.00;86.40;;;;;;4932006;29;20525;-72
2021/09/12 03:17:12;;;;;;;12.20;11.20;;;14.10;86.10;;;;;;4944670;29;20136;-72
2021/09/12 03:19:44;;;;;;;12.10;11.13;;;14.10;86.20;;;;;;4931385;29;20051;-72
2021/09/12 03:22:16;;;;;;;11.98;11.00;;;14.10;86.00;;;;;;4946937;29;20043;-72
2021/09/12 03:24:48;;;;;;;11.82;10.82;;;14.00;87.20;;;;;;4933857;29;20422;-73
2021/09/12 03:27:20;;;;;;;11.75;10.73;;;14.00;87.10;;;;;;4917088;29;20078;-71
2021/09/12 03:29:52;;;;;;;11.23;10.23;;;14.00;87.30;;;;;;4933941;29;20774;-73
2021/09/12 03:32:24;;;;;;;11.95;10.95;;;14.00;88.00;;;;;;4929499;29;20148;-72
2021/09/12 03:34:56;;;;;;;12.27;11.02;;;14.00;87.80;;;;;;4902853;30;20068;-73
2021/09/12 03:37:27;;;;;;;11.35;10.35;;;14.00;88.90;;;;;;4937866;29;20054;-72
2021/09/12 03:39:59;;;;;;;11.98;10.85;;;13.90;88.40;;;;;;4931784;29;20061;-72
2021/09/12 03:42:32;;;;;;;12.25;11.15;;;13.90;88.30;;;;;;4933810;29;20047;-73
2021/09/12 03:45:05;;;;;;;12.13;11.07;;;13.90;88.60;;;;;;4934518;29;21219;-73
2021/09/12 03:47:37;;;;;;;12.40;11.40;;;13.90;88.10;;;;;;4936405;29;20043;-73
2021/09/12 03:50:09;;;;;;;12.52;11.43;;;13.90;88.40;;;;;;4933327;29;20043;-73
2021/09/12 03:52:41;;;;;;;12.32;11.32;;;13.80;88.40;;;;;;4936728;29;20063;-73
2021/09/12 03:55:13;;;;;;;12.13;11.02;;;13.80;88.40;;;;;;4917947;29;20146;-72
2021/09/12 03:57:45;;;;;;;12.00;11.00;;;13.70;88.60;;;;;;4934299;29;20055;-72
2021/09/12 04:00:17;;;;;;;12.32;11.23;;;13.70;88.30;;;;;;4935797;29;20051;-72
2021/09/12 04:02:49;;;;;;;12.93;11.73;;;13.70;88.70;;;;;;4935864;29;20704;-73
2021/09/12 04:05:22;;;;;;;13.15;12.05;;;13.70;88.90;;;;;;4934315;29;20043;-72
2021/09/12 04:07:54;;;;;;;12.70;11.60;;;13.60;89.20;;;;;;4934840;29;20167;-72
2021/09/12 04:10:26;;;;;;;12.75;11.55;;;13.40;90.10;;;;;;4934233;29;20527;-71
2021/09/12 04:12:59;;;;;;;12.38;11.18;;;13.30;90.40;;;;;;4934274;29;20527;-72
2021/09/12 04:15:31;;;;;;;11.82;10.85;;;13.30;90.30;;;;;;4935543;29;20105;-71
2021/09/12 04:18:03;;;;;;;11.95;10.88;;;13.40;89.70;;;;;;4933240;29;20048;-72
2021/09/12 04:20:35;;;;;;;13.02;11.88;;;13.40;89.50;;;;;;4941116;29;20055;-72
2021/09/12 04:23:07;;;;;;;12.60;11.50;;;13.50;89.10;;;;;;4933994;29;20120;-72
2021/09/12 04:25:39;;;;;;;11.80;10.80;;;13.60;89.00;;;;;;4935499;29;20125;-72
2021/09/12 04:28:11;;;;;;;12.48;11.48;;;13.60;89.20;;;;;;4934783;29;20056;-72
2021/09/12 04:30:43;;;;;;;12.80;11.70;;;13.60;88.70;;;;;;4934691;29;20101;-72
2021/09/12 04:33:15;;;;;;;13.18;12.00;;;13.60;88.70;;;;;;4935487;29;20051;-72
2021/09/12 04:35:47;;;;;;;12.30;11.30;;;13.60;89.10;;;;;;4934389;29;20518;-71
2021/09/12 04:38:19;;;;;;;12.32;11.20;;;13.60;89.10;;;;;;4919501;29;20139;-71
2021/09/12 04:40:51;;;;;;;12.35;11.25;;;13.60;88.80;;;;;;4933481;29;20135;-73
2021/09/12 04:43:23;;;;;;;13.00;11.80;;;13.60;88.70;;;;;;4936397;29;20051;-74
2021/09/12 04:45:55;;;;;;;12.35;11.35;;;13.60;88.70;;;;;;4936684;29;20056;-73
2021/09/12 04:48:27;;;;;;;13.00;11.80;;;13.60;89.20;;;;;;4935235;29;20443;-72
2021/09/12 04:50:58;;;;;;;12.73;11.63;;;13.60;88.80;;;;;;4935101;29;20146;-73
2021/09/12 04:53:30;;;;;;;12.88;11.88;;;13.50;88.70;;;;;;4935452;29;20062;-72
2021/09/12 04:56:02;;;;;;;12.88;11.88;;;13.50;88.50;;;;;;4936201;29;20051;-74
2021/09/12 04:58:34;;;;;;;12.48;11.48;;;13.50;89.20;;;;;;4936011;29;20467;-73
2021/09/12 05:01:06;;;;;;;12.38;11.38;;;13.50;88.30;;;;;;4935095;29;20484;-73
2021/09/12 05:03:39;;;;;;;12.32;11.23;;;13.40;87.80;;;;;;4935552;29;20055;-73
2021/09/12 05:06:11;;;;;;;12.00;11.02;;;13.50;87.70;;;;;;4921881;30;20141;-72
2021/09/12 05:08:43;;;;;;;12.50;11.60;;;13.50;87.70;;;;;;4933985;29;20043;-73
2021/09/12 05:11:15;;;;;;;12.27;11.32;;;13.50;87.50;;;;;;4934038;29;20047;-72
2021/09/12 05:13:47;;;;;;;12.07;11.07;;;13.50;87.30;;;;;;4933501;29;20089;-72
2021/09/12 05:16:19;;;;;;;12.20;11.20;;;13.50;87.30;;;;;;4920469;30;20150;-73
2021/09/12 05:18:51;;;;;;;12.02;11.02;;;13.50;87.50;;;;;;4932750;29;20082;-72
2021/09/12 05:21:23;;;;;;;11.25;10.20;;;13.50;87.20;;;;;;4933963;29;20039;-74
2021/09/12 05:23:55;;;;;;;11.25;10.32;;;13.40;87.30;;;;;;4917174;29;20110;-73
2021/09/12 05:26:27;;;;;;;12.13;11.02;;;13.50;87.40;;;;;;4931466;29;20059;-73
2021/09/12 05:28:59;;;;;;;11.98;10.98;;;13.50;87.60;;;;;;4933208;29;20552;-73
2021/09/12 05:31:31;;;;;;;12.35;11.35;;;13.50;88.00;;;;;;4934984;29;20051;-73
2021/09/12 05:34:03;;;;;;;11.20;10.23;;;13.40;87.90;;;;;;4934042;29;20475;-73
2021/09/12 05:36:35;;;;;;;11.10;10.10;;;13.40;87.90;;;;;;4916693;30;20355;-72
2021/09/12 05:39:07;;;;;;;11.70;10.80;;;13.50;87.90;;;;;;4933720;29;20122;-71
2021/09/12 05:41:39;;;;;;;11.63;10.70;;;13.50;87.80;;;;;;4935023;29;20112;-72
2021/09/12 05:44:11;;;;;;;12.18;11.07;;;13.60;88.00;;;;;;4912654;30;20056;-72
2021/09/12 05:46:44;;;;;;;11.73;10.82;;;13.70;88.10;;;;;;4931228;29;20075;-72
2021/09/12 05:49:16;;;;;;;12.10;11.00;;;13.80;87.80;;;;;;4934922;29;20140;-72
2021/09/12 05:51:48;;;;;;;11.85;10.70;;;13.80;87.70;;;;;;4934715;29;20109;-73
2021/09/12 05:54:20;;;;;;;12.13;11.13;;;13.90;87.60;;;;;;4932501;29;20048;-73
2021/09/12 05:56:52;;;;;;;12.13;11.00;;;14.00;87.10;;;;;;4933081;29;20170;-73
2021/09/12 05:59:24;;;;;;;11.60;10.57;;;14.10;87.00;;;;;;4933976;29;20840;-73
2021/09/12 06:01:56;;;;;;;12.50;11.50;;;14.30;87.40;;;;;;4932016;29;20060;-73
2021/09/12 06:04:29;;;;;;;12.45;11.45;;;14.30;87.20;;;;;;4935064;29;20952;-74
2021/09/12 06:07:02;;;;;;;12.60;11.60;;;14.40;87.60;;;;;;4930893;29;20852;-72
2021/09/12 06:09:34;;;;;;;12.05;11.13;;;14.60;87.30;;;;;;4921085;30;20112;-72
2021/09/12 06:12:07;;;;;;;12.73;11.52;;;14.70;87.40;;;;;;4934092;29;20066;-72
2021/09/12 06:14:39;;;;;;;12.55;11.55;;;14.80;86.90;;;;;;4933600;29;20508;-72
2021/09/12 06:17:11;;;;;;;12.55;11.30;;;14.90;86.60;;;;;;4932231;29;20150;-72
2021/09/12 06:19:46;;;;;;;12.68;11.55;;;15.00;86.10;;;;;;4932074;29;20063;-73
2021/09/12 06:22:18;;;;;;;13.07;12.07;;;15.10;86.50;;;;;;4933982;29;20124;-73
2021/09/12 06:24:50;;;;;;;13.50;12.40;;;15.20;85.60;;;;;;4934271;29;20059;-73
2021/09/12 06:27:22;;;;;;;13.75;12.55;;;15.30;85.40;;;;;;4930120;29;20175;-72
2021/09/12 06:29:54;;;;;;;13.50;12.40;;;15.50;84.80;;;;;;4918547;30;20040;-72
2021/09/12 06:32:26;;;;;;;12.95;11.95;;;15.60;84.50;;;;;;4935908;29;20174;-72
2021/09/12 06:34:58;;;;;;;13.27;12.18;;;15.70;84.30;;;;;;4926400;29;20054;-72
2021/09/12 06:37:30;;;;;;;13.93;12.77;;;15.80;83.80;;;;;;4938674;29;20056;-72
2021/09/12 06:40:03;;;;;;;13.43;12.32;;;16.00;83.40;;;;;;4929760;29;20051;-72
2021/09/12 06:42:35;;;;;;;13.52;12.43;;;16.00;83.20;;;;;;4939241;29;20135;-73
2021/09/12 06:45:08;;;;;;;12.77;11.77;;;16.10;83.00;;;;;;4932219;29;20148;-74
2021/09/12 06:47:40;;;;;;;13.68;12.68;;;16.20;83.00;;;;;;4923746;29;20379;-72
2021/09/12 06:50:12;;;;;;;14.07;12.90;;;16.30;83.00;;;;;;4930908;29;20487;-73
2021/09/12 06:52:45;;;;;;;14.60;13.27;;;16.40;82.70;;;;;;4933255;29;20080;-72
2021/09/12 06:55:19;;;;;;;14.18;12.98;;;16.40;81.70;;;;;;4933895;29;20101;-73
2021/09/12 06:57:51;;;;;;;14.23;13.10;;;16.40;82.40;;;;;;4930590;29;20131;-73
2021/09/12 07:00:23;;;;;;;14.45;13.20;;;16.50;81.60;;;;;;4933206;29;20117;-72
2021/09/12 07:02:59;;;;;;;14.60;13.50;;;16.60;81.80;;;;;;4932853;29;20461;-73
2021/09/12 07:05:31;;;;;;;14.90;13.70;;;16.60;81.70;;;;;;4915563;29;20051;-72
2021/09/12 07:08:04;;;;;;;13.65;12.65;;;16.60;81.50;;;;;;4931579;29;20132;-73
2021/09/12 07:10:36;;;;;;;15.23;14.02;;;16.70;82.00;;;;;;4931281;29;20047;-73
2021/09/12 07:13:08;;;;;;;14.50;13.40;;;16.70;81.70;;;;;;4915570;30;20066;-72
2021/09/12 07:15:40;;;;;;;14.23;13.02;;;16.90;82.10;;;;;;4932798;29;20594;-71
2021/09/12 07:18:13;;;;;;;16.00;14.52;;;17.10;82.20;;;;;;4922536;30;20423;-72
2021/09/12 07:20:45;;;;;;;15.68;14.48;;;17.20;81.20;;;;;;4915467;29;20140;-73
2021/09/12 07:23:17;;;;;;;15.07;13.80;;;17.40;80.70;;;;;;4931066;29;20055;-73
2021/09/12 07:25:49;;;;;;;15.88;14.65;;;17.40;81.40;;;;;;4928730;29;20706;-73
2021/09/12 07:28:22;;;;;;;16.67;15.15;;;17.60;80.90;;;;;;4931729;29;20044;-73
2021/09/12 07:30:54;;;;;;;16.58;15.00;;;17.70;81.60;;;;;;4929455;29;20100;-72
2021/09/12 07:33:26;;;;;;;18.90;17.20;;;17.80;81.40;;;;;;4938917;29;20051;-73
2021/09/12 07:35:58;;;;;;;19.80;18.20;;;17.90;81.10;;;;;;4930209;29;20051;-72
2021/09/12 07:38:30;;;;;;;18.77;17.23;;;18.00;81.00;;;;;;4929795;29;20044;-73
2021/09/12 07:41:03;;;;;;;19.73;18.02;;;18.00;81.60;;;;;;4930794;29;20151;-72
2021/09/12 07:43:35;;;;;;;19.98;18.17;;;18.00;81.70;;;;;;4931854;29;20156;-73
2021/09/12 07:46:07;;;;;;;21.00;19.30;;;18.10;81.90;;;;;;4929087;29;20112;-72
2021/09/12 07:48:39;;;;;;;20.70;19.00;;;18.30;81.50;;;;;;4927210;29;20132;-73
2021/09/12 07:51:11;;;;;;;20.70;18.92;;;18.30;81.10;;;;;;4918003;29;20055;-73
2021/09/12 07:53:43;;;;;;;20.40;18.63;;;18.40;81.10;;;;;;4908195;29;20094;-73
2021/09/12 07:56:15;;;;;;;19.95;18.25;;;18.30;81.10;;;;;;4917629;29;20052;-73
2021/09/12 07:58:47;;;;;;;19.13;17.52;;;18.40;80.90;;;;;;4934177;29;20059;-73
2021/09/12 08:01:20;;;;;;;20.13;18.27;;;18.50;80.90;;;;;;4935891;29;20055;-73
2021/09/12 08:03:53;;;;;;;19.95;18.17;;;18.50;80.80;;;;;;4929206;29;20051;-74
2021/09/12 08:06:25;;;;;;;20.15;18.45;;;18.60;80.50;;;;;;4931227;29;20043;-73
2021/09/12 08:08:57;;;;;;;20.83;19.00;;;18.70;80.30;;;;;;4918171;29;20534;-72
2021/09/12 08:11:29;;;;;;;20.23;18.58;;;18.80;79.80;;;;;;4919132;29;20048;-73
2021/09/12 08:14:02;;;;;;;19.52;17.80;;;18.80;79.50;;;;;;4929199;29;20075;-75
2021/09/12 08:16:34;;;;;;;21.17;19.13;;;19.00;79.40;;;;;;4929124;29;20159;-75
2021/09/12 08:19:06;;;;;;;18.75;17.25;;;19.10;80.10;;;;;;4931917;29;20264;-75
2021/09/12 08:21:38;;;;;;;20.30;18.50;;;19.00;79.70;;;;;;4932949;29;20063;-74
2021/09/12 08:24:10;;;;;;;21.25;19.38;;;19.00;79.00;;;;;;4932557;29;21014;-74
2021/09/12 08:26:42;;;;;;;22.08;20.08;;;19.10;79.50;;;;;;4933810;29;20185;-74
2021/09/12 08:29:14;;;;;;;21.60;19.70;;;19.20;79.40;;;;;;4928026;29;20051;-75
2021/09/12 08:31:46;;;;;;;19.90;18.20;;;19.30;78.70;;;;;;4937262;29;20085;-74
2021/09/12 08:34:18;;;;;;;20.13;18.45;;;19.30;78.60;;;;;;4934805;29;20055;-75
2021/09/12 08:36:51;;;;;;;19.88;18.27;;;19.40;79.80;;;;;;4941262;29;20048;-75
2021/09/12 08:39:23;;;;;;;19.95;18.35;;;19.50;78.10;;;;;;4936559;29;20059;-74
2021/09/12 08:41:59;;;;;;;19.02;17.42;;;19.60;78.40;;;;;;4933730;29;20055;-74
2021/09/12 08:44:33;;;;;;;18.42;16.95;;;19.70;78.20;;;;;;4937368;29;20511;-74
2021/09/12 08:47:05;;;;;;;19.67;18.08;;;19.70;78.40;;;;;;4933468;29;20125;-75
2021/09/12 08:49:38;;;;;;;19.23;17.80;;;19.80;77.70;;;;;;4923392;29;20083;-75
2021/09/12 08:52:11;;;;;;;20.25;18.55;;;19.90;76.60;;;;;;4933730;29;20135;-75
2021/09/12 08:54:43;;;;;;;19.35;17.88;;;20.00;77.50;;;;;;4935811;29;20514;-75
2021/09/12 08:57:16;;;;;;;20.08;18.48;;;20.10;76.80;;;;;;4935230;29;20059;-74
2021/09/12 08:59:50;;;;;;;20.38;18.77;;;20.20;76.50;;;;;;4933694;29;20070;-75
2021/09/12 09:02:26;;;;;;;21.02;19.23;;;20.30;77.20;;;;;;4932467;29;20123;-75
2021/09/12 09:05:02;;;;;;;20.02;18.42;;;20.30;76.70;;;;;;4948863;29;20130;-75
2021/09/12 09:07:34;;;;;;;20.85;19.15;;;20.40;77.00;;;;;;4932220;29;20083;-75
2021/09/12 09:10:19;;;;;;;20.23;18.63;;;20.40;74.90;;;;;;4936665;29;20039;-74
2021/09/12 09:12:55;;;;;;;20.70;19.00;;;20.40;76.80;;;;;;4934509;29;20138;-75
2021/09/12 09:15:27;;;;;;;19.88;18.38;;;20.40;76.40;;;;;;4935045;29;20055;-74
2021/09/12 09:18:06;;;;;;;18.58;17.08;;;20.50;75.20;;;;;;4934387;29;20047;-74
2021/09/12 09:20:38;;;;;;;18.70;17.17;;;20.50;75.40;;;;;;4930673;29;20522;-74
2021/09/12 09:23:10;;;;;;;19.45;17.90;;;20.60;75.80;;;;;;4933859;29;20055;-75
2021/09/12 09:25:42;;;;;;;19.10;17.65;;;20.60;75.50;;;;;;4935310;29;20056;-74
2021/09/12 09:28:15;;;;;;;19.75;18.00;;;20.80;75.80;;;;;;4933543;29;20463;-73
2021/09/12 09:30:54;;;;;;;19.83;18.27;;;20.80;74.50;;;;;;4919663;29;20131;-75
2021/09/12 09:33:29;;;;;;;19.57;17.97;;;20.90;75.40;;;;;;4935313;29;20051;-74
2021/09/12 09:36:04;;;;;;;19.88;18.27;;;20.90;73.30;;;;;;4932651;29;20059;-75
2021/09/12 09:38:38;;;;;;;19.92;18.33;;;20.90;73.70;;;;;;4933532;29;20059;-74
2021/09/12 09:41:12;;;;;;;18.85;17.45;;;20.90;74.90;;;;;;4934125;29;20051;-75
2021/09/12 09:43:49;;;;;;;19.63;18.02;;;20.90;75.30;;;;;;4935594;29;20051;-75
2021/09/12 09:46:30;;;;;;;18.75;17.15;;;21.00;74.70;;;;;;4932774;29;20057;-75
2021/09/12 09:49:26;;;;;;;19.80;18.10;;;21.10;74.80;;;;;;4934350;29;20300;-75
2021/09/12 09:52:00;;;;;;;18.70;17.20;;;21.10;75.10;;;;;;4931103;29;20055;-75
2021/09/12 09:54:34;;;;;;;19.75;18.15;;;21.20;76.10;;;;;;4937861;29;20059;-75
2021/09/12 09:57:08;;;;;;;19.23;17.65;;;21.40;74.90;;;;;;4931883;29;20140;-74
2021/09/12 09:59:39;;;;;;;19.83;18.23;;;21.40;74.40;;;;;;4941916;29;20688;-75
2021/09/12 10:02:14;;;;;;;19.77;18.17;;;21.40;73.60;;;;;;4931589;29;20130;-74
2021/09/12 10:04:47;;;;;;;21.23;19.42;;;21.40;74.40;;;;;;4934564;29;20047;-75
2021/09/12 10:07:22;;;;;;;20.00;18.33;;;21.50;74.60;;;;;;4930163;29;20132;-76
2021/09/12 10:09:54;;;;;;;20.90;19.30;;;21.50;73.20;;;;;;4933176;29;20093;-75
2021/09/12 10:12:27;;;;;;;20.00;18.50;;;21.60;73.80;;;;;;4933674;29;20044;-75
2021/09/12 10:15:04;;;;;;;20.20;18.70;;;21.60;73.00;;;;;;4935134;29;20486;-75
2021/09/12 10:17:41;;;;;;;19.38;17.83;;;21.60;72.20;;;;;;4933246;29;20048;-75
2021/09/12 10:20:15;;;;;;;20.02;18.52;;;21.60;73.00;;;;;;4920869;29;20059;-74
2021/09/12 10:23:01;;;;;;;20.10;18.60;;;21.70;72.90;;;;;;4932464;29;20454;-76
2021/09/12 10:25:52;;;;;;;20.27;18.73;;;21.70;73.50;;;;;;4931929;29;20047;-75
2021/09/12 10:28:32;;;;;;;19.50;18.00;;;21.80;72.90;;;;;;4930762;29;20059;-74
2021/09/12 10:31:26;;;;;;;20.45;18.95;;;21.90;73.70;;;;;;4934306;29;20047;-75
2021/09/12 10:34:12;;;;;;;20.30;18.67;;;21.80;70.80;;;;;;4935469;29;20435;-75
2021/09/12 10:36:45;;;;;;;19.58;18.08;;;21.90;72.20;;;;;;4933112;29;20154;-75
2021/09/12 10:39:34;;;;;;;20.23;18.73;;;21.90;72.80;;;;;;4935062;29;20446;-76
2021/09/12 10:42:12;;;;;;;18.95;17.55;;;21.90;71.80;;;;;;4933407;29;20384;-75
2021/09/12 10:44:45;;;;;;;19.77;18.25;;;22.10;72.40;;;;;;4933779;29;20058;-75
2021/09/12 10:47:19;;;;;;;19.67;18.17;;;22.00;71.60;;;;;;4929997;29;20047;-76
2021/09/12 10:49:51;;;;;;;19.75;18.25;;;22.00;71.70;;;;;;4931599;29;20075;-75
2021/09/12 10:52:46;;;;;;;19.88;18.38;;;22.10;71.20;;;;;;4939087;29;20112;-75
2021/09/12 10:55:18;;;;;;;19.77;18.30;;;22.10;71.80;;;;;;4932642;29;21383;-75
2021/09/12 10:57:50;;;;;;;20.08;18.52;;;22.20;72.60;;;;;;4932677;29;20074;-75
2021/09/12 11:00:22;;;;;;;19.70;18.30;;;22.30;72.20;;;;;;4930035;29;20063;-75
2021/09/12 11:02:55;;;;;;;20.20;18.70;;;22.30;70.50;;;;;;4933294;29;20423;-76
2021/09/12 11:05:28;;;;;;;19.52;18.05;;;22.30;70.40;;;;;;4932406;29;20051;-74
2021/09/12 11:08:00;;;;;;;20.55;19.05;;;22.40;71.70;;;;;;4932132;29;20052;-74
2021/09/12 11:10:37;;;;;;;19.15;17.75;;;22.40;71.40;;;;;;4935378;29;20055;-75
2021/09/12 11:13:09;;;;;;;20.15;18.63;;;22.40;70.30;;;;;;4930791;29;20096;-75
2021/09/12 11:15:41;;;;;;;19.45;18.05;;;22.40;70.00;;;;;;4933494;29;20052;-75
2021/09/12 11:18:13;;;;;;;20.15;18.65;;;22.40;70.10;;;;;;4934902;29;20578;-75
2021/09/12 11:20:47;;;;;;;20.48;18.88;;;22.40;69.70;;;;;;4931540;29;20048;-75
2021/09/12 11:23:32;;;;;;;20.33;18.83;;;22.30;69.60;;;;;;4933368;29;20572;-76
2021/09/12 11:26:04;;;;;;;20.83;19.17;;;22.30;70.40;;;;;;4931709;29;20051;-75
2021/09/12 11:28:36;;;;;;;20.35;18.75;;;22.30;70.20;;;;;;4932175;29;20131;-75
2021/09/12 11:31:08;;;;;;;20.65;19.08;;;22.40;69.50;;;;;;4933625;29;20131;-76
2021/09/12 11:33:47;;;;;;;20.20;18.70;;;22.40;69.50;;;;;;4934086;29;20055;-75
2021/09/12 11:36:19;;;;;;;20.60;19.00;;;22.50;69.70;;;;;;4931043;29;20182;-73
2021/09/12 11:38:56;;;;;;;19.92;18.42;;;22.50;70.40;;;;;;4929499;29;20545;-76
2021/09/12 11:41:30;;;;;;;20.50;19.00;;;22.50;70.10;;;;;;4932514;29;20727;-76
2021/09/12 11:44:02;;;;;;;20.42;18.92;;;22.60;69.70;;;;;;4933673;29;20043;-75
2021/09/12 11:46:35;;;;;;;19.45;18.00;;;22.60;70.60;;;;;;4929729;29;20148;-74
2021/09/12 11:49:07;;;;;;;20.35;18.85;;;22.70;70.80;;;;;;4933189;29;20039;-74
2021/09/12 11:51:40;;;;;;;19.73;18.33;;;22.80;69.80;;;;;;4933580;29;20142;-75
2021/09/12 11:54:15;;;;;;;20.42;18.92;;;22.80;69.60;;;;;;4933936;29;20079;-74
2021/09/12 11:57:01;;;;;;;20.23;18.80;;;22.90;70.10;;;;;;4933949;29;20054;-74
2021/09/12 11:59:37;;;;;;;21.52;19.58;;;22.80;68.30;;;;;;4925201;29;20428;-75
2021/09/12 12:02:12;;;;;;;19.80;18.20;;;22.90;69.00;;;;;;4931417;29;20147;-74
2021/09/12 12:04:45;;;;;;;20.23;18.73;;;22.90;69.70;;;;;;4936173;29;20557;-74
2021/09/12 12:07:19;;;;;;;19.83;18.42;;;22.90;68.10;;;;;;4933630;29;20589;-74
2021/09/12 12:09:51;;;;;;;20.42;18.92;;;22.90;68.70;;;;;;4933495;29;20146;-74
2021/09/12 12:12:22;;;;;;;20.17;18.67;;;23.00;69.10;;;;;;4934013;29;20162;-74
2021/09/12 12:15:00;;;;;;;19.42;17.92;;;23.00;69.70;;;;;;4934399;29;20051;-75
2021/09/12 12:17:33;;;;;;;19.45;17.95;;;23.00;68.50;;;;;;4936068;29;20072;-74
2021/09/12 12:20:15;;;;;;;19.42;18.02;;;23.00;68.30;;;;;;4934287;29;20126;-75
2021/09/12 12:22:47;;;;;;;19.52;18.02;;;23.00;69.10;;;;;;4936898;29;20055;-74
2021/09/12 12:25:27;;;;;;;20.05;18.55;;;23.00;69.20;;;;;;4934399;29;20056;-75
2021/09/12 12:28:16;;;;;;;20.02;18.52;;;23.10;70.40;;;;;;4934148;29;20083;-74
2021/09/12 12:31:09;;;;;;;20.10;18.60;;;23.20;69.70;;;;;;4934860;29;20751;-74
2021/09/12 12:33:44;;;;;;;20.27;18.63;;;23.10;68.80;;;;;;4937077;29;20051;-73
2021/09/12 12:36:19;;;;;;;19.98;18.35;;;23.10;67.50;;;;;;4935769;29;20062;-75
2021/09/12 12:38:51;;;;;;;19.17;17.70;;;23.00;68.30;;;;;;4934176;29;20083;-75
2021/09/12 12:41:26;;;;;;;20.00;18.50;;;23.10;68.30;;;;;;4937006;29;20051;-74
2021/09/12 12:44:13;;;;;;;19.67;18.23;;;22.90;67.70;;;;;;4936120;29;20134;-74
2021/09/12 12:46:46;;;;;;;19.98;18.58;;;22.90;67.80;;;;;;4932368;29;20047;-74
2021/09/12 12:49:28;;;;;;;19.75;18.17;;;23.00;68.10;;;;;;4937035;29;20047;-74
2021/09/12 12:52:04;;;;;;;18.90;17.55;;;23.00;68.40;;;;;;4937189;29;20138;-74
2021/09/12 12:54:38;;;;;;;20.10;18.50;;;23.00;69.10;;;;;;4935902;29;20064;-73
2021/09/12 12:57:12;;;;;;;19.27;17.80;;;23.10;68.60;;;;;;4933581;29;20398;-73
2021/09/12 12:59:48;;;;;;;19.05;17.65;;;23.10;68.40;;;;;;4936196;29;20051;-75